WEATHER DATA

YESTERDAY
Time Temp. Dewp. Hum. Bar.
00:06 6.8 5.3 90 967.5
00:31 6.6 4.9 89 966.7
00:42 6.5 4.8 89 966.6
00:52 6.4 4.9 90 966.4
01:02 6.4 4.9 90 966.3
01:12 6.4 4.9 90 966.3
01:22 6.4 4.9 90 966.1
01:32 6.4 4.9 90 966.1
01:42 6.4 4.9 90 965.8
01:53 6.4 4.9 90 966.1
02:03 6.4 4.9 90 966.3
02:12 6.3 4.6 89 966.3
02:22 6.1 4.4 89 966.5
02:33 5.9 4.1 88 966.6
02:43 5.7 3.9 88 966.6
02:53 5.5 3.7 88 967
03:03 5.4 3.7 89 966.9
03:14 5.3 3.6 89 966.8
03:23 5.3 3.6 89 967
03:38 5.4 3.9 90 967.1
03:49 5.5 4 90 967.2
03:59 5.5 4 90 967.2
04:09 5.5 4 90 967.4
04:20 5.6 4.1 90 967.5
04:29 5.6 3.9 89 967.5
04:39 5.7 3.9 88 967.7
04:55 5.7 3.7 87 968
05:05 5.6 3.6 87 968.3
05:15 5.5 3.7 88 968.5
05:25 5.4 3.6 88 968.7
05:35 5.3 3.5 88 969
05:45 5.3 3.6 89 969.1
05:55 5.2 3.5 89 969.4
06:05 5.2 3.5 89 969.6
06:16 5.2 3.5 89 969.8
06:31 5.2 3.5 89 970.3
06:41 5.2 3.4 88 970.5
06:51 5.2 3.4 88 970.7
07:01 5.1 3.3 88 971.1
07:11 5.1 3.3 88 971.3
07:22 5.1 3.4 89 971.6
07:37 5.1 3.4 89 971.9
07:46 5.2 3.4 88 972.1
07:57 5.2 3.4 88 972.6
08:07 5.2 3.4 88 972.9
08:17 5.2 3.4 88 973
08:27 5.1 3.4 89 973.4
08:38 5.1 3.4 89 973.8
08:47 5.2 3.5 89 974.1
08:57 5.2 3.5 89 974.2
09:07 5.4 3.6 88 974.3
09:18 5.5 3.7 88 974.6
09:28 5.6 3.6 87 974.8
09:38 5.7 3.5 86 975.1
09:48 5.7 3.4 85 975.4
09:58 5.8 3.5 85 975.7
10:08 5.8 3.3 84 975.8
10:18 5.9 3.4 84 976
10:34 6 3.3 83 976.2
10:44 6.3 3.6 83 976.5
10:53 6.5 3.5 81 976.5
11:04 6.6 3.6 81 976.7
11:29 6.8 3.4 79 976.9
11:40 7 3.4 78 977
11:49 7 3.2 77 977
11:59 7.1 3.3 77 977
12:09 7.1 3.3 77 977.1
12:20 7.2 3.3 76 977.4
12:30 7.6 3.5 75 977.3
12:40 7.6 3.5 75 977.6
12:50 8 3.5 73 977.6
13:00 8.2 3.5 72 977.7
13:10 8.6 3.6 71 977.7
13:20 8.8 3.6 70 977.9
13:31 8.9 3.5 69 978
13:40 8.8 3.6 70 977.9
13:50 8.3 3.2 70 978.2
14:01 8 3.1 71 978.4
14:10 7.8 2.9 71 978.5
14:20 7.5 2.8 72 978.7
14:30 7.4 2.7 72 978.9
14:41 7.2 2.5 72 979.2
14:51 7.1 2.2 71 979.2
15:01 6.9 2.2 72 979.2
15:16 6.7 2 72 979.7
15:26 6.6 2.1 73 979.7
15:36 6.7 2.2 73 979.7
15:46 6.7 2 72 979.8
15:57 6.7 2 72 979.8
16:06 6.7 2 72 980
16:16 6.7 2 72 979.9
16:27 6.6 2.1 73 979.9
16:37 6.4 1.9 73 980
16:47 6.2 1.5 72 980
16:57 6 1.5 73 979.7
17:07 5.8 1.3 73 979.8
17:22 5.6 1.3 74 979.4
17:32 5.5 1.4 75 979.9
17:43 5.4 1.3 75 979.8
17:53 5.4 1.3 75 979.8
18:03 5.4 1.3 75 979.8
18:13 5.5 1.4 75 979.6
18:23 5.6 1.5 75 979.5
18:33 5.6 1.5 75 979.7
18:43 5.6 1.5 75 979.7
18:54 5.7 1.6 75 979.6
19:04 5.7 1.6 75 979.4
19:13 5.7 1.6 75 979.3
19:23 5.7 1.6 75 978.8
19:34 5.7 1.6 75 978.4
19:44 5.7 1.6 75 978.5
19:54 5.6 1.5 75 978.2
20:04 5.6 1.5 75 977.9
20:15 5.7 1.6 75 978
20:24 5.8 1.7 75 978
20:34 6 1.9 75 977.4
20:45 6 1.9 75 977.6
20:55 6.2 2.1 75 977.6
21:05 6.2 2.1 75 977.3
21:15 6.2 2.5 77 977.5
21:26 6 2.8 80 977.7
21:35 5.7 2.9 82 977.6
21:45 5.4 2.7 83 977.3
21:55 5.2 2.7 84 977.1
22:06 5.1 2.8 85 976.6
22:16 4.9 2.8 86 976.5
22:26 4.9 2.8 86 976.5
22:36 4.8 2.8 87 976.3
22:46 4.8 2.8 87 975.9
22:56 4.8 2.8 87 975.9
23:06 4.8 2.8 87 975.7
23:27 4.7 2.7 87 975.8
23:37 4.7 2.9 88 976.2
23:47 4.7 2.9 88 976.2
23:57 4.7 2.9 88 976.2

DAY STATISTIC

2019-12-13
TEMPERATURE
AVERAGE
6.0
HIGH
8.9
13:31
LOW
4.7
23:27
PRESSURE
AVERAGE
974.5
HIGH
980.0
16:06
LOW
965.8
01:42
DEWPOINT
AVERAGE
3.1
HIGH
5.3
00:06
LOW
1.3
17:07
HUMIDITY
AVERAGE
82
HIGH
90
00:06
LOW
69
13:31
TEMPERATURE (°C)
LOW
4.7
HIGH
8.9
AVERAGE
6.0
PRESSURE (hpa)
LOW
965.8
HIGH
980.0
AVERAGE
974.5
DEVICE